createdAt,value
2023-05-16T00:01:58.867Z,1.70
2023-05-16T00:04:26.595Z,2.10
2023-05-16T00:06:53.427Z,2.03
2023-05-16T00:09:20.212Z,2.73
2023-05-16T00:11:48.437Z,2.10
2023-05-16T00:14:15.327Z,2.10
2023-05-16T00:16:42.329Z,2.30
2023-05-16T00:19:10.580Z,2.40
2023-05-16T00:21:37.407Z,2.70
2023-05-16T00:24:05.206Z,2.47
2023-05-16T00:26:32.012Z,2.27
2023-05-16T00:28:58.707Z,1.90
2023-05-16T00:31:25.484Z,2.90
2023-05-16T00:33:52.282Z,3.03
2023-05-16T00:36:19.132Z,2.70
2023-05-16T00:38:45.878Z,2.47
2023-05-16T00:41:12.621Z,1.80
2023-05-16T00:43:39.889Z,2.70
2023-05-16T00:46:06.777Z,1.93
2023-05-16T00:48:33.907Z,1.87
2023-05-16T00:51:01.627Z,2.20
2023-05-16T00:53:28.455Z,2.37
2023-05-16T00:55:56.697Z,2.23
2023-05-16T00:58:23.540Z,1.80
2023-05-16T01:00:50.225Z,2.47
2023-05-16T01:03:17.246Z,2.53
2023-05-16T01:05:44.403Z,2.00
2023-05-16T01:08:11.276Z,2.53
2023-05-16T01:10:45.005Z,2.97
2023-05-16T01:13:59.910Z,3.00
2023-05-16T01:17:03.969Z,2.47
2023-05-16T01:20:00.926Z,2.80
2023-05-16T01:22:43.071Z,2.80
2023-05-16T01:25:34.942Z,2.70
2023-05-16T01:28:03.322Z,2.17
2023-05-16T01:30:35.334Z,2.73
2023-05-16T01:33:02.096Z,2.23
2023-05-16T01:35:29.267Z,3.27
2023-05-16T01:38:05.950Z,2.63
2023-05-16T01:40:50.571Z,2.13
2023-05-16T01:43:20.523Z,2.60
2023-05-16T01:45:56.419Z,2.73
2023-05-16T01:48:24.282Z,2.43
2023-05-16T01:50:56.059Z,2.40
2023-05-16T01:53:27.631Z,2.67
2023-05-16T01:55:57.438Z,2.73
2023-05-16T01:58:26.766Z,2.73
2023-05-16T02:00:54.187Z,3.00
2023-05-16T02:03:21.051Z,3.93
2023-05-16T02:05:47.830Z,2.47
2023-05-16T02:08:14.841Z,2.40
2023-05-16T02:10:41.697Z,2.40
2023-05-16T02:13:08.407Z,2.50
2023-05-16T02:15:35.128Z,2.57
2023-05-16T02:18:01.929Z,2.80
2023-05-16T02:20:28.799Z,2.03
2023-05-16T02:22:56.001Z,2.50
2023-05-16T02:25:22.760Z,2.13
2023-05-16T02:27:49.577Z,2.20
2023-05-16T02:30:16.409Z,2.80
2023-05-16T02:32:45.331Z,4.37
2023-05-16T02:35:12.538Z,3.40
2023-05-16T02:37:40.359Z,2.60
2023-05-16T02:40:08.093Z,2.60
2023-05-16T02:42:34.841Z,2.90
2023-05-16T02:45:01.741Z,2.80
2023-05-16T02:47:28.482Z,3.10
2023-05-16T02:49:55.243Z,2.40
2023-05-16T02:52:21.987Z,2.53
2023-05-16T02:54:56.093Z,2.10
2023-05-16T02:57:26.989Z,1.83
2023-05-16T02:59:53.708Z,2.57
2023-05-16T03:02:20.562Z,3.07
2023-05-16T03:04:47.351Z,2.67
2023-05-16T03:07:14.189Z,2.87
2023-05-16T03:09:41.056Z,3.13
2023-05-16T03:12:07.972Z,2.27
2023-05-16T03:14:34.688Z,3.20
2023-05-16T03:17:01.473Z,2.70
2023-05-16T03:19:28.222Z,2.57
2023-05-16T03:21:55.523Z,2.77
2023-05-16T03:24:23.218Z,3.60
2023-05-16T03:26:50.113Z,3.33
2023-05-16T03:29:16.809Z,3.00
2023-05-16T03:31:43.657Z,3.07
2023-05-16T03:34:10.443Z,3.50
2023-05-16T03:36:38.946Z,3.40
2023-05-16T03:39:05.694Z,3.27
2023-05-16T03:41:32.421Z,3.33
2023-05-16T03:43:59.195Z,2.97
2023-05-16T03:46:26.217Z,3.63
2023-05-16T03:48:52.959Z,3.53
2023-05-16T03:51:19.759Z,3.00
2023-05-16T03:53:46.584Z,1.90
2023-05-16T03:56:13.441Z,3.10
2023-05-16T03:58:40.234Z,2.97
2023-05-16T04:01:06.953Z,3.83
2023-05-16T04:03:33.811Z,3.33
2023-05-16T04:06:00.901Z,3.07
2023-05-16T04:08:27.810Z,3.53
2023-05-16T04:10:54.728Z,4.10
2023-05-16T04:13:21.615Z,3.53
2023-05-16T04:15:48.341Z,3.60
2023-05-16T04:18:15.174Z,3.30
2023-05-16T04:20:47.702Z,3.50
2023-05-16T04:23:14.723Z,3.13
2023-05-16T04:25:42.125Z,2.53
2023-05-16T04:28:08.885Z,2.37
2023-05-16T04:30:35.602Z,2.90
2023-05-16T04:33:02.972Z,3.50
2023-05-16T04:35:29.835Z,2.53
2023-05-16T04:37:57.005Z,2.87
2023-05-16T04:40:25.402Z,3.70
2023-05-16T04:42:53.569Z,3.30
2023-05-16T04:45:21.162Z,2.97
2023-05-16T04:47:47.881Z,3.37
2023-05-16T04:50:16.044Z,4.10
2023-05-16T04:52:42.664Z,3.90
2023-05-16T04:55:11.139Z,2.93
2023-05-16T04:57:37.995Z,3.27
2023-05-16T05:00:08.321Z,4.10
2023-05-16T05:02:35.261Z,4.50
2023-05-16T05:05:02.050Z,4.60
2023-05-16T05:07:29.375Z,3.63
2023-05-16T05:09:56.255Z,2.70
2023-05-16T05:12:23.117Z,4.17
2023-05-16T05:14:49.936Z,3.50
2023-05-16T05:17:17.865Z,3.87
2023-05-16T05:19:44.649Z,3.13
2023-05-16T05:22:12.157Z,3.63
2023-05-16T05:24:38.904Z,4.03
2023-05-16T05:27:05.916Z,3.50
2023-05-16T05:29:32.723Z,4.20
2023-05-16T05:31:59.741Z,3.70
2023-05-16T05:34:26.512Z,3.50
2023-05-16T05:36:53.252Z,4.10
2023-05-16T05:39:19.842Z,3.63
2023-05-16T05:41:46.706Z,4.67
2023-05-16T05:44:13.541Z,4.27
2023-05-16T05:46:40.455Z,4.00
2023-05-16T05:49:07.211Z,2.83
2023-05-16T05:51:33.960Z,3.33
2023-05-16T05:54:01.822Z,3.73
2023-05-16T05:56:28.669Z,3.83
2023-05-16T05:58:55.567Z,3.80
2023-05-16T06:01:22.428Z,4.00
2023-05-16T06:03:49.221Z,3.70
2023-05-16T06:06:16.005Z,3.77
2023-05-16T06:08:42.809Z,3.60
2023-05-16T06:11:09.585Z,4.40
2023-05-16T06:13:36.510Z,3.73
2023-05-16T06:16:03.506Z,4.03
2023-05-16T06:18:30.332Z,3.50
2023-05-16T06:20:57.110Z,5.00
2023-05-16T06:23:23.836Z,4.90
2023-05-16T06:25:51.079Z,4.10
2023-05-16T06:28:17.868Z,4.60
2023-05-16T06:30:44.692Z,4.03
2023-05-16T06:33:11.513Z,4.70
2023-05-16T06:35:38.645Z,3.97
2023-05-16T06:38:05.315Z,4.20
2023-05-16T06:40:32.093Z,5.47
2023-05-16T06:42:58.990Z,3.97
2023-05-16T06:45:26.205Z,4.43
2023-05-16T06:47:55.239Z,5.10
2023-05-16T06:50:23.524Z,4.20
2023-05-16T06:52:50.157Z,5.00
2023-05-16T06:55:17.144Z,4.40
2023-05-16T06:57:43.875Z,4.50
2023-05-16T07:00:11.041Z,6.90
2023-05-16T07:02:37.814Z,5.80
2023-05-16T07:05:04.901Z,4.73
2023-05-16T07:07:31.932Z,4.10
2023-05-16T07:09:58.782Z,5.00
2023-05-16T07:12:25.554Z,4.27
2023-05-16T07:14:52.572Z,5.00
2023-05-16T07:17:19.355Z,4.57
2023-05-16T07:19:46.226Z,4.70
2023-05-16T07:22:12.940Z,4.93
2023-05-16T07:24:39.961Z,4.40
2023-05-16T07:27:07.108Z,4.33
2023-05-16T07:29:34.056Z,4.43
2023-05-16T07:32:01.183Z,3.37
2023-05-16T07:34:28.134Z,3.47
2023-05-16T07:36:54.976Z,4.30
2023-05-16T07:39:21.751Z,4.30
2023-05-16T07:41:48.568Z,4.20
2023-05-16T07:44:15.364Z,3.90
2023-05-16T07:46:45.008Z,4.20
2023-05-16T07:49:12.079Z,5.30
2023-05-16T07:51:38.914Z,5.27
2023-05-16T07:54:05.842Z,5.77
2023-05-16T07:56:33.263Z,5.43
2023-05-16T07:59:00.341Z,5.10
2023-05-16T08:01:27.164Z,5.63
2023-05-16T08:03:54.047Z,6.13
2023-05-16T08:06:20.860Z,6.77
2023-05-16T08:08:47.662Z,6.50
2023-05-16T08:11:15.338Z,5.00
2023-05-16T08:13:42.263Z,5.77
2023-05-16T08:16:09.238Z,6.90
2023-05-16T08:18:36.121Z,5.80
2023-05-16T08:21:03.091Z,7.30
2023-05-16T08:23:29.831Z,7.47
2023-05-16T08:25:56.782Z,5.60
2023-05-16T08:28:23.582Z,4.67
2023-05-16T08:30:50.595Z,4.90
2023-05-16T08:33:17.564Z,4.70
2023-05-16T08:35:45.023Z,3.60
2023-05-16T08:38:11.927Z,4.67
2023-05-16T08:40:40.314Z,5.77
2023-05-16T08:43:07.592Z,5.70
2023-05-16T08:45:34.866Z,6.80
2023-05-16T08:48:02.205Z,7.60
2023-05-16T08:50:31.874Z,9.20
2023-05-16T08:52:58.773Z,6.10
2023-05-16T08:55:27.539Z,5.90
2023-05-16T08:57:54.715Z,5.20
2023-05-16T09:00:22.894Z,6.60
2023-05-16T09:02:50.285Z,7.93
2023-05-16T09:05:17.753Z,7.10
2023-05-16T09:07:45.415Z,6.77
2023-05-16T09:10:13.438Z,6.57
2023-05-16T09:12:42.095Z,5.87
2023-05-16T09:15:10.900Z,5.20
2023-05-16T09:17:43.396Z,6.50
2023-05-16T09:20:15.221Z,5.87
2023-05-16T09:22:54.973Z,4.40
2023-05-16T09:25:30.137Z,5.60
2023-05-16T09:28:00.301Z,6.13
2023-05-16T09:30:31.934Z,5.83
2023-05-16T09:32:59.620Z,6.37
2023-05-16T09:37:56.988Z,5.93
2023-05-16T09:40:24.381Z,5.53
2023-05-16T09:43:04.904Z,6.53
2023-05-16T09:45:32.754Z,5.10
2023-05-16T09:48:03.312Z,6.43
2023-05-16T09:50:30.315Z,5.70
2023-05-16T09:52:57.206Z,6.80
2023-05-16T09:55:24.107Z,6.37
2023-05-16T09:57:51.052Z,6.57
2023-05-16T10:00:18.586Z,5.10
2023-05-16T10:02:46.141Z,5.70
2023-05-16T10:05:13.061Z,5.03
2023-05-16T10:07:40.216Z,5.73
2023-05-16T10:10:08.535Z,4.63
2023-05-16T10:12:35.701Z,5.50
2023-05-16T10:15:03.882Z,5.70
2023-05-16T10:17:39.681Z,6.13
2023-05-16T10:20:08.273Z,4.93
2023-05-16T10:22:36.098Z,5.80
2023-05-16T10:25:28.110Z,6.10
2023-05-16T10:27:55.714Z,6.33
2023-05-16T10:30:22.593Z,6.13
2023-05-16T10:32:50.635Z,7.83
2023-05-16T10:35:17.723Z,6.50
2023-05-16T10:37:44.687Z,12.10
2023-05-16T10:40:12.234Z,6.27
2023-05-16T10:42:39.120Z,6.17
2023-05-16T10:45:19.814Z,4.70
2023-05-16T10:47:59.641Z,6.70
2023-05-16T10:50:45.831Z,5.47
2023-05-16T10:53:21.850Z,5.77
2023-05-16T10:56:07.340Z,5.80
2023-05-16T10:58:40.688Z,5.60
2023-05-16T11:01:29.508Z,4.67
2023-05-16T11:04:02.218Z,4.97
2023-05-16T11:06:32.430Z,5.87
2023-05-16T11:09:11.475Z,6.83
2023-05-16T11:11:53.726Z,7.00
2023-05-16T11:14:26.338Z,6.33
2023-05-16T11:17:03.746Z,5.20
2023-05-16T11:19:50.249Z,5.60
2023-05-16T11:22:20.678Z,6.30
2023-05-16T11:25:01.449Z,4.13
2023-05-16T11:27:28.293Z,5.80
2023-05-16T11:30:01.865Z,4.33
2023-05-16T11:32:30.009Z,6.30
2023-05-16T11:34:58.598Z,5.63
2023-05-16T11:37:25.614Z,5.43
2023-05-16T11:39:52.481Z,6.03
2023-05-16T11:42:19.437Z,5.70
2023-05-16T11:44:46.441Z,5.30
2023-05-16T11:47:13.825Z,4.90
2023-05-16T11:49:41.619Z,4.73
2023-05-16T11:52:08.699Z,4.83
2023-05-16T11:54:35.640Z,4.73
2023-05-16T11:57:03.372Z,5.83
2023-05-16T11:59:30.299Z,5.13
2023-05-16T12:01:57.252Z,4.60
2023-05-16T12:04:24.321Z,4.60
2023-05-16T12:07:00.806Z,4.70
2023-05-16T12:09:27.937Z,5.37
2023-05-16T12:11:54.851Z,3.80
2023-05-16T12:14:21.804Z,4.70
2023-05-16T12:16:49.564Z,4.33
2023-05-16T12:19:16.869Z,4.33
2023-05-16T12:21:43.794Z,5.33
2023-05-16T12:24:13.044Z,4.80
2023-05-16T12:26:41.370Z,4.20
2023-05-16T12:29:08.857Z,4.27
2023-05-16T12:31:41.750Z,3.10
2023-05-16T12:34:20.675Z,3.93
2023-05-16T12:36:53.013Z,4.47
2023-05-16T12:39:20.581Z,2.73
2023-05-16T12:41:47.495Z,5.27
2023-05-16T12:44:17.572Z,4.00
2023-05-16T12:46:46.467Z,3.90
2023-05-16T12:49:13.896Z,4.17
2023-05-16T12:51:41.289Z,3.27
2023-05-16T12:54:12.041Z,3.90
2023-05-16T12:56:40.263Z,3.93
2023-05-16T12:59:07.623Z,4.20
2023-05-16T13:01:35.780Z,4.13
2023-05-16T13:04:03.170Z,3.77
2023-05-16T13:06:36.997Z,4.43
2023-05-16T13:09:16.545Z,4.53
2023-05-16T13:11:43.341Z,5.40
2023-05-16T13:14:10.220Z,5.50
2023-05-16T13:16:37.087Z,6.00
2023-05-16T13:19:05.484Z,6.60
2023-05-16T13:21:32.461Z,5.33
2023-05-16T13:23:59.655Z,4.47
2023-05-16T13:26:27.498Z,4.60
2023-05-16T13:28:55.342Z,4.87
2023-05-16T13:31:22.853Z,4.80
2023-05-16T13:33:49.742Z,5.60
2023-05-16T13:36:16.544Z,5.03
2023-05-16T13:38:43.538Z,4.60
2023-05-16T13:41:10.390Z,5.03
2023-05-16T13:43:37.322Z,4.80
2023-05-16T13:46:04.232Z,3.93
2023-05-16T13:48:31.105Z,4.37
2023-05-16T13:50:57.894Z,4.30
2023-05-16T13:53:24.710Z,4.30
2023-05-16T13:55:51.499Z,4.10
2023-05-16T13:58:18.344Z,3.93
2023-05-16T14:00:46.193Z,6.17
2023-05-16T14:03:13.502Z,5.70
2023-05-16T14:05:40.790Z,4.30
2023-05-16T14:08:07.996Z,3.40
2023-05-16T14:10:34.773Z,3.10
2023-05-16T14:13:01.671Z,14.93
2023-05-16T14:15:28.740Z,3.50
2023-05-16T14:17:55.839Z,6.27
2023-05-16T14:20:23.190Z,7.10
2023-05-16T14:22:49.983Z,4.80
2023-05-16T14:25:16.854Z,4.03
2023-05-16T14:27:43.884Z,14.57
2023-05-16T14:30:11.205Z,14.77
2023-05-16T14:32:38.152Z,10.33
2023-05-16T14:35:05.517Z,4.67
2023-05-16T14:37:32.626Z,4.33
2023-05-16T14:40:00.975Z,4.37
2023-05-16T14:42:27.956Z,4.67
2023-05-16T14:44:54.746Z,4.83
2023-05-16T14:47:21.645Z,4.97
2023-05-16T14:49:48.419Z,5.60
2023-05-16T14:52:15.231Z,5.07
2023-05-16T14:54:41.988Z,5.40
2023-05-16T14:57:08.816Z,5.80
2023-05-16T14:59:35.772Z,5.70
2023-05-16T15:02:02.929Z,5.80
2023-05-16T15:04:29.810Z,7.00
2023-05-16T15:06:56.721Z,5.40
2023-05-16T15:09:23.550Z,5.30
2023-05-16T15:11:50.430Z,3.80
2023-05-16T15:14:17.308Z,4.87
2023-05-16T15:16:44.330Z,4.40
2023-05-16T15:19:11.483Z,5.97
2023-05-16T15:21:38.446Z,5.67
2023-05-16T15:24:05.719Z,9.30
2023-05-16T15:26:32.942Z,8.60
2023-05-16T15:28:59.844Z,8.80
2023-05-16T15:31:27.184Z,6.50
2023-05-16T15:33:54.179Z,6.07
2023-05-16T15:36:21.171Z,5.30
2023-05-16T15:38:47.995Z,5.80
2023-05-16T15:41:31.895Z,6.13
2023-05-16T15:44:02.881Z,4.70
2023-05-16T15:46:33.003Z,4.83
2023-05-16T15:49:00.120Z,4.40
2023-05-16T15:51:26.889Z,4.90
2023-05-16T15:53:53.668Z,5.37
2023-05-16T15:56:21.654Z,5.73
2023-05-16T15:58:48.582Z,6.17
2023-05-16T16:01:16.693Z,5.97
2023-05-16T16:03:43.784Z,4.80
2023-05-16T16:06:10.811Z,4.10
2023-05-16T16:08:37.706Z,4.33
2023-05-16T16:11:05.513Z,4.30
2023-05-16T16:13:32.784Z,4.47
2023-05-16T16:15:59.836Z,4.47
2023-05-16T16:18:26.713Z,4.83
2023-05-16T16:20:53.989Z,5.00
2023-05-16T16:23:21.832Z,4.53
2023-05-16T16:25:48.595Z,4.60
2023-05-16T16:28:15.851Z,4.00
2023-05-16T16:30:44.297Z,4.93
2023-05-16T16:33:11.424Z,4.23
2023-05-16T16:35:38.310Z,4.77
2023-05-16T16:38:07.201Z,4.87
2023-05-16T16:40:34.665Z,4.50
2023-05-16T16:43:01.762Z,4.33
2023-05-16T16:45:28.849Z,4.10
2023-05-16T16:47:56.094Z,4.60
2023-05-16T16:50:23.022Z,4.67
2023-05-16T16:52:49.828Z,5.57
2023-05-16T16:55:16.831Z,4.30
2023-05-16T16:57:43.757Z,4.63
2023-05-16T17:00:11.617Z,4.60
2023-05-16T17:02:38.605Z,5.07
2023-05-16T17:05:06.846Z,26.80
2023-05-16T17:07:34.037Z,27.23
2023-05-16T17:10:01.247Z,11.00
2023-05-16T17:12:28.981Z,14.80
2023-05-16T17:14:58.902Z,12.27
2023-05-16T17:17:26.243Z,5.60
2023-05-16T17:19:53.121Z,4.50
2023-05-16T17:22:21.535Z,5.07
2023-05-16T17:24:48.449Z,9.43
2023-05-16T17:27:15.534Z,9.23
2023-05-16T17:29:42.725Z,6.80
2023-05-16T17:32:09.606Z,5.20
2023-05-16T17:34:36.651Z,4.27
2023-05-16T17:37:06.245Z,7.00
2023-05-16T17:39:34.263Z,5.57
2023-05-16T17:42:01.091Z,4.60
2023-05-16T17:44:27.940Z,3.87
2023-05-16T17:46:54.856Z,3.60
2023-05-16T17:49:21.912Z,4.33
2023-05-16T17:51:50.453Z,4.20
2023-05-16T17:54:18.709Z,5.63
2023-05-16T17:56:46.836Z,6.43
2023-05-16T17:59:14.049Z,7.20
2023-05-16T18:01:41.424Z,6.70
2023-05-16T18:04:08.740Z,6.00
2023-05-16T18:06:37.767Z,5.77
2023-05-16T18:09:10.519Z,7.83
2023-05-16T18:11:40.710Z,7.40
2023-05-16T18:14:11.713Z,6.53
2023-05-16T18:16:38.805Z,9.20
2023-05-16T18:19:06.128Z,10.83
2023-05-16T18:21:34.082Z,7.27
2023-05-16T18:24:00.953Z,6.50
2023-05-16T18:26:28.926Z,5.57
2023-05-16T18:28:56.132Z,4.70
2023-05-16T18:31:22.996Z,5.07
2023-05-16T18:33:50.198Z,5.10
2023-05-16T18:36:17.077Z,4.57
2023-05-16T18:38:43.939Z,6.53
2023-05-16T18:41:10.998Z,5.80
2023-05-16T18:43:37.853Z,5.03
2023-05-16T18:46:04.759Z,5.30
2023-05-16T18:48:32.468Z,4.47
2023-05-16T18:51:00.930Z,4.60
2023-05-16T18:53:27.785Z,4.17
2023-05-16T18:55:54.790Z,4.50
2023-05-16T18:58:21.851Z,4.33
2023-05-16T19:00:48.843Z,4.63
2023-05-16T19:03:15.919Z,5.17
2023-05-16T19:05:43.152Z,4.83
2023-05-16T19:08:10.369Z,4.20
2023-05-16T19:10:38.698Z,4.67
2023-05-16T19:13:08.957Z,4.27
2023-05-16T19:15:36.524Z,4.93
2023-05-16T19:18:04.964Z,4.93
2023-05-16T19:20:33.723Z,4.30
2023-05-16T19:23:01.143Z,4.30
2023-05-16T19:25:28.257Z,9.57
2023-05-16T19:27:55.156Z,27.40
2023-05-16T19:30:23.507Z,17.43
2023-05-16T19:32:51.759Z,9.10
2023-05-16T19:35:19.758Z,14.20
2023-05-16T19:37:46.648Z,8.70
2023-05-16T19:40:16.336Z,5.80
2023-05-16T19:42:44.127Z,4.70
2023-05-16T19:45:11.282Z,5.33
2023-05-16T19:47:38.194Z,6.20
2023-05-16T19:50:05.733Z,5.73
2023-05-16T19:52:32.644Z,5.10
2023-05-16T19:54:59.501Z,5.43
2023-05-16T19:57:26.295Z,4.60
2023-05-16T19:59:53.196Z,4.23
2023-05-16T20:02:21.237Z,4.40
2023-05-16T20:04:50.572Z,4.10
2023-05-16T20:07:17.481Z,3.80
2023-05-16T20:09:44.444Z,4.37
2023-05-16T20:12:12.817Z,4.37
2023-05-16T20:14:39.860Z,4.23
2023-05-16T20:17:08.347Z,4.43
2023-05-16T20:19:36.592Z,4.10
2023-05-16T20:22:03.721Z,3.90
2023-05-16T20:24:30.468Z,4.90
2023-05-16T20:26:57.241Z,4.17
2023-05-16T20:29:24.078Z,4.57
2023-05-16T20:31:50.785Z,3.87
2023-05-16T20:34:17.562Z,4.13
2023-05-16T20:36:44.344Z,3.80
2023-05-16T20:39:11.255Z,4.60
2023-05-16T20:41:38.064Z,5.70
2023-05-16T20:44:06.213Z,4.50
2023-05-16T20:46:33.291Z,4.43
2023-05-16T20:49:00.287Z,4.30
2023-05-16T20:51:27.117Z,4.63
2023-05-16T20:53:53.790Z,4.83
2023-05-16T20:56:21.000Z,4.83
2023-05-16T20:58:47.759Z,4.17
2023-05-16T21:01:14.488Z,3.50
2023-05-16T21:03:41.415Z,3.30
2023-05-16T21:06:08.286Z,3.67
2023-05-16T21:08:35.048Z,4.20
2023-05-16T21:11:01.870Z,3.07
2023-05-16T21:13:29.063Z,2.93
2023-05-16T21:15:55.807Z,2.50
2023-05-16T21:18:22.838Z,3.57
2023-05-16T21:20:49.775Z,2.80
2023-05-16T21:23:16.630Z,3.10
2023-05-16T21:25:43.397Z,2.83
2023-05-16T21:28:10.241Z,2.77
2023-05-16T21:30:37.042Z,2.60
2023-05-16T21:33:04.066Z,2.20
2023-05-16T21:35:31.222Z,2.80
2023-05-16T21:37:58.063Z,3.17
2023-05-16T21:40:28.990Z,3.83
2023-05-16T21:42:55.908Z,4.13
2023-05-16T21:45:22.686Z,2.93
2023-05-16T21:47:49.641Z,3.43
2023-05-16T21:50:17.806Z,2.80
2023-05-16T21:52:44.606Z,3.40
2023-05-16T21:55:11.413Z,3.40
2023-05-16T21:57:38.266Z,2.93
2023-05-16T22:00:09.361Z,2.67
2023-05-16T22:02:37.243Z,2.60
2023-05-16T22:05:04.888Z,2.20
2023-05-16T22:07:32.051Z,2.17
2023-05-16T22:09:59.176Z,0.60
2023-05-16T22:12:27.076Z,1.23
2023-05-16T22:14:54.431Z,0.70
2023-05-16T22:17:21.414Z,0.57
2023-05-16T22:19:48.408Z,0.43
2023-05-16T22:22:15.467Z,0.77
2023-05-16T22:24:42.253Z,0.50
2023-05-16T22:27:09.141Z,0.40
2023-05-16T22:29:38.412Z,0.83
2023-05-16T22:32:07.196Z,0.60
2023-05-16T22:34:34.705Z,0.50
2023-05-16T22:37:01.701Z,0.50
2023-05-16T22:39:28.725Z,0.60
2023-05-16T22:41:55.725Z,0.57
2023-05-16T22:44:22.460Z,1.03
2023-05-16T22:46:49.399Z,0.70
2023-05-16T22:49:16.636Z,0.77
2023-05-16T22:51:43.396Z,0.67
2023-05-16T22:54:10.165Z,1.00
2023-05-16T22:56:36.850Z,1.13
2023-05-16T22:59:03.604Z,0.80
2023-05-16T23:01:30.583Z,0.90
2023-05-16T23:03:57.571Z,0.90
2023-05-16T23:06:24.420Z,0.50
2023-05-16T23:08:51.318Z,0.77
2023-05-16T23:11:19.825Z,0.80
2023-05-16T23:13:46.760Z,0.60
2023-05-16T23:16:13.537Z,0.70
2023-05-16T23:18:40.781Z,0.70
2023-05-16T23:21:08.219Z,0.93
2023-05-16T23:23:35.039Z,1.07
2023-05-16T23:26:01.787Z,1.37
2023-05-16T23:28:28.585Z,0.90
2023-05-16T23:30:55.497Z,0.70
2023-05-16T23:33:22.321Z,0.50
2023-05-16T23:35:49.146Z,0.50
2023-05-16T23:38:16.133Z,0.90
2023-05-16T23:40:42.908Z,0.60
2023-05-16T23:43:09.679Z,0.93
2023-05-16T23:45:36.512Z,0.50
2023-05-16T23:48:03.906Z,0.80
2023-05-16T23:50:30.738Z,1.50
2023-05-16T23:52:57.529Z,0.83
2023-05-16T23:55:24.427Z,0.50
2023-05-16T23:57:51.218Z,0.60
